Time;durP1;ratioP1;P1;durP2;ratioP2;P2;SDS_P1;SDS_P2;PMS_P1;PMS_P2;Temp;Humidity;BMP_temperature;BMP_pressure;BME280_temperature;BME280_humidity;BME280_pressure;Samples;Min_cycle;Max_cycle;Signal;HPM_P1;HPM_P2
2021/03/18 00:01:50;;;;;;;2.45;1.80;;;;;;;;;;5142438;27;20193;-75
2021/03/18 00:04:17;;;;;;;3.53;2.97;;;;;;;;;;5154673;27;20195;-76
2021/03/18 00:06:44;;;;;;;4.78;3.25;;;;;;;;;;5154268;27;20295;-75
2021/03/18 00:09:10;;;;;;;3.70;2.20;;;;;;;;;;5154244;27;20252;-75
2021/03/18 00:11:37;;;;;;;3.78;2.78;;;;;;;;;;5154871;27;20669;-75
2021/03/18 00:14:03;;;;;;;7.18;3.58;;;;;;;;;;5154635;27;20204;-77
2021/03/18 00:16:29;;;;;;;4.25;3.90;;;;;;;;;;5138188;27;20181;-76
2021/03/18 00:18:56;;;;;;;8.10;3.33;;;;;;;;;;5137369;27;20199;-77
2021/03/18 00:21:23;;;;;;;5.55;3.00;;;;;;;;;;5136890;27;20525;-77
2021/03/18 00:23:49;;;;;;;3.30;2.55;;;;;;;;;;5133987;28;20602;-76
2021/03/18 00:26:17;;;;;;;3.28;2.38;;;;;;;;;;5133625;28;20254;-77
2021/03/18 00:28:43;;;;;;;2.78;2.40;;;;;;;;;;5137496;27;20753;-77
2021/03/18 00:31:09;;;;;;;5.63;2.60;;;;;;;;;;5154728;27;20267;-76
2021/03/18 00:33:35;;;;;;;3.77;3.23;;;;;;;;;;5154265;27;20450;-76
2021/03/18 00:36:02;;;;;;;2.30;2.03;;;;;;;;;;5158091;27;20465;-76
2021/03/18 00:38:28;;;;;;;4.22;2.83;;;;;;;;;;5158419;27;20319;-78
2021/03/18 00:40:57;;;;;;;6.70;2.92;;;;;;;;;;5158191;27;20204;-76
2021/03/18 00:43:23;;;;;;;4.20;2.60;;;;;;;;;;5139558;27;20701;-76
2021/03/18 00:45:49;;;;;;;6.03;3.20;;;;;;;;;;5137866;27;20216;-75
2021/03/18 00:48:17;;;;;;;3.28;2.20;;;;;;;;;;5138273;27;20554;-76
2021/03/18 00:50:45;;;;;;;3.95;3.08;;;;;;;;;;5138266;27;20595;-77
2021/03/18 00:53:13;;;;;;;4.05;2.67;;;;;;;;;;5137664;27;20713;-76
2021/03/18 00:55:39;;;;;;;3.10;2.42;;;;;;;;;;5137373;27;20200;-76
2021/03/18 00:58:05;;;;;;;10.48;3.22;;;;;;;;;;5146382;27;20186;-76
2021/03/18 01:00:33;;;;;;;7.43;3.45;;;;;;;;;;5157666;27;20194;-75
2021/03/18 01:02:59;;;;;;;3.40;2.88;;;;;;;;;;5157870;27;20188;-75
2021/03/18 01:05:28;;;;;;;2.47;2.07;;;;;;;;;;5158121;27;20658;-76
2021/03/18 01:07:54;;;;;;;2.90;2.30;;;;;;;;;;5157500;27;20526;-76
2021/03/18 01:10:21;;;;;;;4.15;2.88;;;;;;;;;;5157275;27;20314;-77
2021/03/18 01:12:47;;;;;;;4.22;2.25;;;;;;;;;;5153497;27;20245;-76
2021/03/18 01:15:13;;;;;;;4.75;2.78;;;;;;;;;;5153705;27;20190;-76
2021/03/18 01:17:40;;;;;;;6.93;3.25;;;;;;;;;;5153010;27;20191;-76
2021/03/18 01:20:09;;;;;;;2.35;2.15;;;;;;;;;;5153030;27;20189;-75
2021/03/18 01:22:35;;;;;;;3.47;2.15;;;;;;;;;;5157568;27;20193;-75
2021/03/18 01:25:02;;;;;;;3.53;2.90;;;;;;;;;;5158116;27;20252;-75
2021/03/18 01:27:29;;;;;;;2.80;2.25;;;;;;;;;;5153602;27;20442;-76
2021/03/18 01:29:55;;;;;;;3.40;3.08;;;;;;;;;;5150739;27;20228;-77
2021/03/18 01:32:21;;;;;;;4.33;2.33;;;;;;;;;;5157395;27;20287;-76
2021/03/18 01:34:47;;;;;;;2.60;1.90;;;;;;;;;;5157708;27;20560;-75
2021/03/18 01:37:12;;;;;;;2.60;2.40;;;;;;;;;;5157526;27;20464;-75
2021/03/18 01:39:38;;;;;;;2.80;1.90;;;;;;;;;;5158165;27;20445;-75
2021/03/18 01:42:05;;;;;;;3.05;2.28;;;;;;;;;;5157653;27;20426;-74
2021/03/18 01:44:32;;;;;;;4.40;1.83;;;;;;;;;;5142801;27;20195;-75
2021/03/18 01:46:58;;;;;;;2.25;2.05;;;;;;;;;;5137202;27;20224;-75
2021/03/18 01:49:24;;;;;;;2.50;2.30;;;;;;;;;;5137496;27;20232;-76
2021/03/18 01:51:49;;;;;;;3.40;1.50;;;;;;;;;;5137394;27;20780;-75
2021/03/18 01:54:16;;;;;;;4.43;2.70;;;;;;;;;;5137180;27;20207;-75
2021/03/18 01:56:42;;;;;;;4.68;2.40;;;;;;;;;;5151350;27;20470;-75
2021/03/18 01:59:08;;;;;;;2.53;2.10;;;;;;;;;;5157230;27;20237;-77
2021/03/18 02:01:35;;;;;;;3.40;2.30;;;;;;;;;;5157443;27;20617;-75
2021/03/18 02:04:02;;;;;;;4.22;2.72;;;;;;;;;;5158048;27;20202;-76
2021/03/18 02:06:28;;;;;;;2.60;1.90;;;;;;;;;;5157336;27;20288;-76
2021/03/18 02:08:54;;;;;;;3.80;2.15;;;;;;;;;;5157595;27;20181;-76
2021/03/18 02:11:20;;;;;;;5.07;2.10;;;;;;;;;;5157559;27;20226;-76
2021/03/18 02:13:46;;;;;;;3.10;2.00;;;;;;;;;;5141617;27;20438;-76
2021/03/18 02:16:13;;;;;;;2.57;1.97;;;;;;;;;;5137064;27;20449;-76
2021/03/18 02:18:53;;;;;;;3.53;1.95;;;;;;;;;;5136792;27;20461;-77
2021/03/18 02:21:49;;;;;;;5.03;3.28;;;;;;;;;;5137880;27;20532;-77
2021/03/18 02:24:18;;;;;;;2.22;2.05;;;;;;;;;;5053501;28;20194;-76
2021/03/18 02:27:14;;;;;;;2.55;2.20;;;;;;;;;;5118256;27;20310;-76
2021/03/18 02:29:57;;;;;;;2.42;2.05;;;;;;;;;;5137253;27;20687;-76
2021/03/18 02:32:36;;;;;;;2.83;1.85;;;;;;;;;;5137014;27;20614;-76
2021/03/18 02:35:15;;;;;;;4.13;2.13;;;;;;;;;;5156869;27;21706;-76
2021/03/18 02:37:43;;;;;;;2.60;1.77;;;;;;;;;;5157831;27;20190;-75
2021/03/18 02:40:13;;;;;;;2.78;2.13;;;;;;;;;;5156620;27;20663;-76
2021/03/18 02:42:40;;;;;;;4.97;2.10;;;;;;;;;;5156293;27;20250;-75
2021/03/18 02:45:08;;;;;;;4.97;2.45;;;;;;;;;;5156203;27;20280;-74
2021/03/18 02:47:35;;;;;;;2.08;1.75;;;;;;;;;;5150513;27;20966;-75
2021/03/18 02:50:01;;;;;;;4.57;2.05;;;;;;;;;;5135383;27;20535;-76
2021/03/18 02:52:29;;;;;;;3.58;2.40;;;;;;;;;;5155117;27;20637;-74
2021/03/18 02:54:57;;;;;;;3.97;1.92;;;;;;;;;;5154889;27;20238;-76
2021/03/18 02:57:24;;;;;;;4.97;2.60;;;;;;;;;;5154737;27;20242;-75
2021/03/18 02:59:51;;;;;;;3.95;2.40;;;;;;;;;;5155953;27;20628;-73
2021/03/18 03:02:19;;;;;;;3.70;1.95;;;;;;;;;;5155719;27;20220;-75
2021/03/18 03:04:46;;;;;;;2.88;2.15;;;;;;;;;;5155218;27;20193;-74
2021/03/18 03:07:13;;;;;;;3.40;2.20;;;;;;;;;;5155181;27;20541;-75
2021/03/18 03:09:42;;;;;;;4.90;3.20;;;;;;;;;;5155680;27;20201;-75
2021/03/18 03:12:09;;;;;;;2.80;2.13;;;;;;;;;;5156284;27;20270;-75
2021/03/18 03:14:35;;;;;;;3.75;2.05;;;;;;;;;;5155337;27;20204;-75
2021/03/18 03:17:02;;;;;;;3.70;2.70;;;;;;;;;;5154605;27;20611;-74
2021/03/18 03:19:28;;;;;;;7.53;5.40;;;;;;;;;;5156109;27;20627;-74
2021/03/18 03:21:55;;;;;;;8.23;2.42;;;;;;;;;;5155740;27;20651;-75
2021/03/18 03:24:21;;;;;;;2.70;2.42;;;;;;;;;;5156187;27;20178;-76
2021/03/18 03:26:48;;;;;;;4.45;2.88;;;;;;;;;;5155588;27;20316;-75
2021/03/18 03:29:14;;;;;;;4.82;2.90;;;;;;;;;;5156164;27;20221;-75
2021/03/18 03:31:40;;;;;;;2.65;2.25;;;;;;;;;;5155688;27;20247;-75
2021/03/18 03:34:07;;;;;;;3.80;2.35;;;;;;;;;;5155551;27;20197;-74
2021/03/18 03:36:33;;;;;;;3.67;2.75;;;;;;;;;;5155157;27;20313;-76
2021/03/18 03:38:59;;;;;;;3.50;2.05;;;;;;;;;;5155017;27;20186;-74
2021/03/18 03:41:25;;;;;;;3.15;2.50;;;;;;;;;;5155667;27;20197;-75
2021/03/18 03:43:52;;;;;;;3.80;2.35;;;;;;;;;;5155083;27;20608;-75
2021/03/18 03:46:18;;;;;;;3.78;2.58;;;;;;;;;;5155198;27;20550;-74
2021/03/18 03:48:44;;;;;;;4.23;2.10;;;;;;;;;;5155535;27;20232;-74
2021/03/18 03:51:10;;;;;;;7.97;3.53;;;;;;;;;;5155085;27;20424;-75
2021/03/18 03:53:40;;;;;;;4.00;3.60;;;;;;;;;;5155112;27;20284;-75
2021/03/18 03:56:10;;;;;;;6.13;2.58;;;;;;;;;;5155220;27;20213;-75
2021/03/18 03:58:41;;;;;;;10.57;3.88;;;;;;;;;;5155396;27;20184;-75
2021/03/18 04:01:13;;;;;;;3.58;2.75;;;;;;;;;;5155819;27;20190;-75
2021/03/18 04:03:39;;;;;;;9.38;3.80;;;;;;;;;;5155467;27;20594;-76
2021/03/18 04:06:05;;;;;;;3.58;3.28;;;;;;;;;;5154436;27;20256;-73
2021/03/18 04:08:33;;;;;;;11.15;3.83;;;;;;;;;;5154714;27;20186;-75
2021/03/18 04:10:59;;;;;;;5.65;3.40;;;;;;;;;;5154520;27;20315;-75
2021/03/18 04:13:27;;;;;;;4.43;4.03;;;;;;;;;;5155155;27;20204;-75
2021/03/18 04:15:55;;;;;;;11.13;4.32;;;;;;;;;;5152916;27;20186;-75
2021/03/18 04:18:23;;;;;;;3.53;3.22;;;;;;;;;;5134434;27;20194;-74
2021/03/18 04:20:49;;;;;;;4.40;2.88;;;;;;;;;;5135121;28;20210;-74
2021/03/18 04:23:15;;;;;;;2.97;2.78;;;;;;;;;;5134529;28;20216;-74
2021/03/18 04:25:41;;;;;;;3.20;2.50;;;;;;;;;;5138022;27;20226;-75
2021/03/18 04:28:09;;;;;;;3.83;3.20;;;;;;;;;;5134236;28;20210;-75
2021/03/18 04:30:35;;;;;;;3.78;2.50;;;;;;;;;;5134205;28;20218;-75
2021/03/18 04:33:01;;;;;;;3.92;3.50;;;;;;;;;;5134315;28;20726;-75
2021/03/18 04:35:29;;;;;;;3.20;2.90;;;;;;;;;;5134226;28;20679;-75
2021/03/18 04:37:55;;;;;;;2.40;2.20;;;;;;;;;;5141034;27;20188;-75
2021/03/18 04:40:21;;;;;;;3.35;2.22;;;;;;;;;;5154790;27;20202;-74
2021/03/18 04:42:48;;;;;;;4.97;3.35;;;;;;;;;;5154907;27;20226;-76
2021/03/18 04:45:14;;;;;;;4.85;3.60;;;;;;;;;;5154813;27;20276;-74
2021/03/18 04:47:42;;;;;;;5.35;2.60;;;;;;;;;;5154889;27;20205;-74
2021/03/18 04:50:10;;;;;;;6.15;3.50;;;;;;;;;;5155284;27;20214;-76
2021/03/18 04:52:38;;;;;;;5.05;3.92;;;;;;;;;;5154358;27;20285;-74
2021/03/18 04:55:05;;;;;;;3.63;3.22;;;;;;;;;;5154759;27;20208;-74
2021/03/18 04:57:31;;;;;;;7.95;2.92;;;;;;;;;;5154772;27;20603;-75
2021/03/18 04:59:57;;;;;;;6.88;2.97;;;;;;;;;;5152718;27;20178;-75
2021/03/18 05:02:24;;;;;;;5.55;2.85;;;;;;;;;;5154523;27;20182;-74
2021/03/18 05:04:51;;;;;;;3.70;2.47;;;;;;;;;;5155099;27;20288;-75
2021/03/18 05:07:17;;;;;;;6.95;2.90;;;;;;;;;;5154529;27;20218;-75
2021/03/18 05:09:44;;;;;;;4.80;2.50;;;;;;;;;;5154195;27;20534;-75
2021/03/18 05:12:10;;;;;;;4.85;3.35;;;;;;;;;;5154629;27;20617;-74
2021/03/18 05:14:37;;;;;;;9.18;3.22;;;;;;;;;;5153683;27;20186;-74
2021/03/18 05:17:03;;;;;;;3.78;2.38;;;;;;;;;;5154757;27;20194;-75
2021/03/18 05:19:29;;;;;;;7.88;3.08;;;;;;;;;;5154882;27;20198;-76
2021/03/18 05:21:56;;;;;;;3.63;3.33;;;;;;;;;;5157919;27;20194;-75
2021/03/18 05:24:22;;;;;;;3.63;2.83;;;;;;;;;;5158410;27;20197;-74
2021/03/18 05:26:49;;;;;;;3.35;2.80;;;;;;;;;;5158729;27;20627;-75
2021/03/18 05:29:16;;;;;;;3.53;2.78;;;;;;;;;;5149926;27;20233;-75
2021/03/18 05:31:42;;;;;;;4.95;2.95;;;;;;;;;;5157961;27;20204;-75
2021/03/18 05:34:08;;;;;;;3.67;3.20;;;;;;;;;;5158578;27;20182;-74
2021/03/18 05:36:34;;;;;;;7.85;5.57;;;;;;;;;;5157600;27;20221;-74
2021/03/18 05:39:00;;;;;;;6.78;3.30;;;;;;;;;;5157814;27;20506;-75
2021/03/18 05:41:26;;;;;;;5.10;3.28;;;;;;;;;;5156218;27;20198;-75
2021/03/18 05:43:53;;;;;;;5.82;3.22;;;;;;;;;;5158442;27;20542;-76
2021/03/18 05:46:20;;;;;;;4.90;4.15;;;;;;;;;;5157587;27;20250;-75
2021/03/18 05:48:46;;;;;;;7.13;3.00;;;;;;;;;;5157704;27;20239;-75
2021/03/18 05:51:14;;;;;;;5.20;2.78;;;;;;;;;;5157783;27;20276;-75
2021/03/18 05:53:42;;;;;;;4.55;3.53;;;;;;;;;;5157694;27;20225;-75
2021/03/18 05:56:08;;;;;;;3.45;3.00;;;;;;;;;;5157896;27;20194;-75
2021/03/18 05:58:34;;;;;;;4.75;3.40;;;;;;;;;;5155349;27;20242;-73
2021/03/18 06:01:01;;;;;;;11.13;3.70;;;;;;;;;;5140771;27;20202;-75
2021/03/18 06:03:27;;;;;;;7.80;4.47;;;;;;;;;;5137007;27;20278;-75
2021/03/18 06:05:53;;;;;;;5.10;3.63;;;;;;;;;;5137000;27;20751;-74
2021/03/18 06:08:19;;;;;;;4.28;3.15;;;;;;;;;;5136662;27;20424;-74
2021/03/18 06:10:45;;;;;;;5.35;3.20;;;;;;;;;;5136772;27;20210;-76
2021/03/18 06:13:12;;;;;;;3.78;3.47;;;;;;;;;;5136617;27;20579;-76
2021/03/18 06:15:38;;;;;;;5.10;3.80;;;;;;;;;;5136356;27;20198;-74
2021/03/18 06:18:06;;;;;;;6.18;4.30;;;;;;;;;;5144782;27;20179;-76
2021/03/18 06:20:32;;;;;;;4.95;2.80;;;;;;;;;;5136353;27;20191;-74
2021/03/18 06:22:59;;;;;;;6.60;3.35;;;;;;;;;;5136173;27;20215;-74
2021/03/18 06:25:27;;;;;;;5.88;3.17;;;;;;;;;;5136304;27;20226;-75
2021/03/18 06:28:10;;;;;;;5.05;3.63;;;;;;;;;;5145673;27;20197;-74
2021/03/18 06:30:37;;;;;;;5.18;3.38;;;;;;;;;;5147087;27;20197;-75
2021/03/18 06:33:16;;;;;;;7.35;3.42;;;;;;;;;;5155098;27;20261;-75
2021/03/18 06:35:42;;;;;;;3.22;2.80;;;;;;;;;;5156209;27;20311;-75
2021/03/18 06:38:08;;;;;;;3.58;2.75;;;;;;;;;;5156001;27;20534;-74
2021/03/18 06:40:39;;;;;;;5.97;3.70;;;;;;;;;;5156336;27;20657;-74
2021/03/18 06:43:05;;;;;;;3.78;3.35;;;;;;;;;;5155808;27;20292;-74
2021/03/18 06:45:32;;;;;;;7.30;3.95;;;;;;;;;;5155221;27;20220;-76
2021/03/18 06:48:00;;;;;;;8.68;3.70;;;;;;;;;;5156214;27;20591;-75
2021/03/18 06:50:31;;;;;;;6.35;3.75;;;;;;;;;;5155336;27;20204;-75
2021/03/18 06:52:57;;;;;;;6.63;3.60;;;;;;;;;;5154343;27;20284;-74
2021/03/18 06:55:28;;;;;;;5.97;3.55;;;;;;;;;;5150359;27;20636;-75
2021/03/18 06:58:14;;;;;;;6.80;4.07;;;;;;;;;;5154230;27;20233;-74
2021/03/18 07:00:40;;;;;;;6.45;3.53;;;;;;;;;;5155151;27;20643;-75
2021/03/18 07:03:08;;;;;;;7.50;4.40;;;;;;;;;;5147249;27;20190;-74
2021/03/18 07:05:38;;;;;;;9.30;4.07;;;;;;;;;;5134988;27;20208;-77
2021/03/18 07:08:05;;;;;;;4.85;3.88;;;;;;;;;;5150081;27;20190;-76
2021/03/18 07:10:32;;;;;;;4.70;4.30;;;;;;;;;;5155962;27;20244;-74
2021/03/18 07:13:13;;;;;;;6.78;3.67;;;;;;;;;;5155405;27;20297;-76
2021/03/18 07:15:39;;;;;;;6.32;3.20;;;;;;;;;;5155476;27;20213;-76
2021/03/18 07:18:05;;;;;;;4.50;3.72;;;;;;;;;;5144568;27;20294;-76
2021/03/18 07:20:31;;;;;;;5.82;4.18;;;;;;;;;;5148579;27;20202;-75
2021/03/18 07:22:58;;;;;;;5.53;4.00;;;;;;;;;;5147839;27;20515;-74
2021/03/18 07:25:25;;;;;;;5.50;4.03;;;;;;;;;;5151201;27;20609;-74
2021/03/18 07:27:52;;;;;;;8.75;4.03;;;;;;;;;;5156133;27;20190;-76
2021/03/18 07:30:26;;;;;;;6.65;4.85;;;;;;;;;;5155626;27;20221;-74
2021/03/18 07:32:53;;;;;;;5.20;4.15;;;;;;;;;;5155106;27;20275;-75
2021/03/18 07:35:19;;;;;;;4.28;3.47;;;;;;;;;;5155526;27;20653;-76
2021/03/18 07:37:45;;;;;;;4.20;3.30;;;;;;;;;;5155368;27;20215;-75
2021/03/18 07:40:12;;;;;;;3.92;3.20;;;;;;;;;;5155290;27;20572;-74
2021/03/18 07:42:39;;;;;;;9.55;4.13;;;;;;;;;;5154556;27;20230;-76
2021/03/18 07:45:06;;;;;;;6.55;3.13;;;;;;;;;;5154872;27;20221;-76
2021/03/18 07:47:33;;;;;;;4.90;3.10;;;;;;;;;;5154378;27;20314;-75
2021/03/18 07:50:00;;;;;;;4.13;2.65;;;;;;;;;;5154433;27;20249;-74
2021/03/18 07:52:27;;;;;;;6.15;4.00;;;;;;;;;;5154854;27;20194;-74
2021/03/18 07:54:55;;;;;;;3.75;2.60;;;;;;;;;;5154286;27;20189;-76
2021/03/18 07:57:22;;;;;;;11.15;4.68;;;;;;;;;;5144396;27;20637;-76
2021/03/18 07:59:48;;;;;;;5.97;4.28;;;;;;;;;;5133726;27;20181;-75
2021/03/18 08:02:16;;;;;;;7.00;3.58;;;;;;;;;;5133728;27;20208;-75
2021/03/18 08:04:44;;;;;;;3.67;2.55;;;;;;;;;;5133458;27;20201;-76
2021/03/18 08:07:10;;;;;;;5.15;3.58;;;;;;;;;;5133048;27;20229;-76
2021/03/18 08:10:00;;;;;;;4.68;4.03;;;;;;;;;;5133207;27;20202;-76
2021/03/18 08:12:44;;;;;;;3.47;2.50;;;;;;;;;;5133220;27;20283;-75
2021/03/18 08:15:34;;;;;;;3.95;2.83;;;;;;;;;;5133875;27;20202;-75
2021/03/18 08:18:20;;;;;;;7.07;2.60;;;;;;;;;;5133753;27;20198;-75
2021/03/18 08:21:01;;;;;;;6.00;2.95;;;;;;;;;;5134048;27;20955;-75
2021/03/18 08:23:54;;;;;;;4.88;3.20;;;;;;;;;;5133518;28;20710;-76
2021/03/18 08:26:35;;;;;;;4.10;2.13;;;;;;;;;;5088557;27;20316;-76
2021/03/18 08:29:03;;;;;;;5.43;3.03;;;;;;;;;;5153646;27;20650;-76
2021/03/18 08:31:43;;;;;;;5.65;3.00;;;;;;;;;;5153687;27;20209;-75
2021/03/18 08:34:09;;;;;;;7.50;3.45;;;;;;;;;;5153314;27;20219;-75
2021/03/18 08:36:36;;;;;;;6.18;2.88;;;;;;;;;;5153960;27;20236;-75
2021/03/18 08:39:06;;;;;;;5.30;2.45;;;;;;;;;;5154281;27;20194;-76
2021/03/18 08:41:34;;;;;;;5.97;3.92;;;;;;;;;;5153914;27;20194;-77
2021/03/18 08:44:13;;;;;;;4.13;3.03;;;;;;;;;;5151706;27;20209;-76
2021/03/18 08:46:43;;;;;;;6.95;2.65;;;;;;;;;;5133067;28;20289;-76
2021/03/18 08:49:27;;;;;;;3.80;3.30;;;;;;;;;;5133365;28;20242;-75
2021/03/18 08:51:54;;;;;;;11.50;2.88;;;;;;;;;;5133267;28;20190;-75
2021/03/18 08:54:39;;;;;;;4.15;2.13;;;;;;;;;;5133418;27;20644;-75
2021/03/18 08:57:05;;;;;;;3.78;2.60;;;;;;;;;;5143612;27;20201;-75
2021/03/18 08:59:32;;;;;;;6.25;2.90;;;;;;;;;;5157584;27;20190;-77
2021/03/18 09:02:04;;;;;;;5.85;2.60;;;;;;;;;;5157680;27;20529;-74
2021/03/18 09:04:35;;;;;;;5.90;3.10;;;;;;;;;;5157108;27;20227;-75
2021/03/18 09:07:03;;;;;;;3.10;2.40;;;;;;;;;;5156850;27;20267;-76
2021/03/18 09:09:29;;;;;;;6.55;2.20;;;;;;;;;;5157189;27;20287;-76
2021/03/18 09:11:56;;;;;;;2.42;1.98;;;;;;;;;;5157425;27;20278;-75
2021/03/18 09:14:22;;;;;;;3.28;2.78;;;;;;;;;;5140702;27;20195;-75
2021/03/18 09:16:49;;;;;;;3.05;2.30;;;;;;;;;;5136987;27;20202;-77
2021/03/18 09:19:15;;;;;;;5.65;3.00;;;;;;;;;;5136832;27;20210;-75
2021/03/18 09:21:43;;;;;;;3.10;2.42;;;;;;;;;;5137005;27;20187;-75
2021/03/18 09:24:10;;;;;;;4.00;2.25;;;;;;;;;;5136470;27;20241;-74
2021/03/18 09:26:36;;;;;;;3.47;2.15;;;;;;;;;;5149364;27;20583;-76
2021/03/18 09:29:03;;;;;;;2.95;2.22;;;;;;;;;;5156852;27;20202;-76
2021/03/18 09:31:30;;;;;;;2.95;2.30;;;;;;;;;;5156782;27;20217;-74
2021/03/18 09:33:57;;;;;;;2.28;2.08;;;;;;;;;;5152205;27;20888;-75
2021/03/18 09:36:24;;;;;;;6.68;2.92;;;;;;;;;;5135638;27;20225;-77
2021/03/18 09:38:59;;;;;;;5.40;2.95;;;;;;;;;;5143808;27;20639;-75
2021/03/18 09:41:27;;;;;;;3.40;2.88;;;;;;;;;;5156962;27;20182;-75
2021/03/18 09:44:07;;;;;;;4.15;2.40;;;;;;;;;;5156873;27;20198;-75
2021/03/18 09:46:34;;;;;;;3.28;2.15;;;;;;;;;;5156822;27;20667;-75
2021/03/18 09:49:00;;;;;;;3.00;2.53;;;;;;;;;;5156742;27;20237;-75
2021/03/18 09:51:26;;;;;;;4.43;2.50;;;;;;;;;;5156479;27;20189;-76
2021/03/18 09:53:57;;;;;;;4.53;2.60;;;;;;;;;;5157035;27;20443;-74
2021/03/18 09:56:23;;;;;;;6.63;2.70;;;;;;;;;;5156730;27;20178;-74
2021/03/18 09:58:51;;;;;;;3.85;2.83;;;;;;;;;;5157453;27;20202;-76
2021/03/18 10:01:18;;;;;;;4.80;2.20;;;;;;;;;;5156432;27;20233;-74
2021/03/18 10:03:53;;;;;;;4.15;2.90;;;;;;;;;;5156397;27;20281;-75
2021/03/18 10:06:23;;;;;;;5.40;2.70;;;;;;;;;;5156442;27;20219;-77
2021/03/18 10:08:49;;;;;;;4.57;2.72;;;;;;;;;;5156841;27;20328;-74
2021/03/18 10:11:15;;;;;;;3.00;2.65;;;;;;;;;;5156944;27;20590;-75
2021/03/18 10:13:42;;;;;;;2.50;1.95;;;;;;;;;;5157126;27;20203;-75
2021/03/18 10:16:09;;;;;;;4.63;2.33;;;;;;;;;;5156433;27;20179;-76
2021/03/18 10:18:35;;;;;;;3.25;2.72;;;;;;;;;;5156796;27;20211;-75
2021/03/18 10:21:02;;;;;;;6.68;2.38;;;;;;;;;;5156716;27;20613;-75
2021/03/18 10:23:28;;;;;;;4.57;3.00;;;;;;;;;;5156049;27;20291;-75
2021/03/18 10:25:56;;;;;;;7.05;2.90;;;;;;;;;;5156576;27;20211;-77
2021/03/18 10:28:28;;;;;;;1.90;1.77;;;;;;;;;;5156050;27;20649;-76
2021/03/18 10:30:55;;;;;;;3.20;1.65;;;;;;;;;;5156330;27;20271;-75
2021/03/18 10:33:22;;;;;;;2.78;1.80;;;;;;;;;;5156231;27;20286;-75
2021/03/18 10:35:58;;;;;;;3.55;1.30;;;;;;;;;;5155684;27;20242;-75
2021/03/18 10:38:28;;;;;;;2.97;2.20;;;;;;;;;;5155564;27;20203;-75
2021/03/18 10:40:54;;;;;;;3.17;1.90;;;;;;;;;;5155932;27;20644;-78
2021/03/18 10:43:22;;;;;;;5.22;2.17;;;;;;;;;;5155841;27;20290;-75
2021/03/18 10:45:49;;;;;;;15.68;1.33;;;;;;;;;;5155674;27;20247;-77
2021/03/18 10:48:18;;;;;;;1.70;1.60;;;;;;;;;;5155876;27;20193;-76
2021/03/18 10:50:46;;;;;;;2.95;2.45;;;;;;;;;;5155965;27;20492;-76
2021/03/18 10:53:12;;;;;;;4.63;1.90;;;;;;;;;;5155223;27;20204;-76
2021/03/18 10:55:39;;;;;;;2.88;1.63;;;;;;;;;;5156060;27;20630;-75
2021/03/18 10:58:06;;;;;;;2.65;1.90;;;;;;;;;;5155939;27;20204;-75
2021/03/18 11:00:33;;;;;;;3.38;2.00;;;;;;;;;;5155731;27;20225;-75
2021/03/18 11:03:01;;;;;;;4.82;2.50;;;;;;;;;;5156268;27;20266;-76
2021/03/18 11:05:30;;;;;;;8.73;3.97;;;;;;;;;;5155518;27;20201;-75
2021/03/18 11:07:57;;;;;;;5.97;1.95;;;;;;;;;;5155248;27;20206;-76
2021/03/18 11:10:28;;;;;;;1.90;1.30;;;;;;;;;;5155714;27;20703;-75
2021/03/18 11:12:58;;;;;;;2.10;1.35;;;;;;;;;;5155537;27;20566;-74
2021/03/18 11:15:25;;;;;;;2.08;1.50;;;;;;;;;;5155804;27;20207;-76
2021/03/18 11:18:04;;;;;;;4.65;1.55;;;;;;;;;;5155801;27;20595;-75
2021/03/18 11:20:34;;;;;;;4.30;2.03;;;;;;;;;;5155752;27;20626;-76
2021/03/18 11:23:01;;;;;;;1.58;1.35;;;;;;;;;;5155756;27;20203;-76
2021/03/18 11:25:27;;;;;;;2.70;2.35;;;;;;;;;;5155317;27;20199;-76
2021/03/18 11:27:53;;;;;;;2.53;1.92;;;;;;;;;;5154793;27;20222;-75
2021/03/18 11:30:27;;;;;;;3.00;1.95;;;;;;;;;;5154887;27;20199;-76
2021/03/18 11:33:06;;;;;;;3.40;2.00;;;;;;;;;;5155369;27;20219;-76
2021/03/18 11:35:32;;;;;;;3.85;2.70;;;;;;;;;;5155257;27;20708;-76
2021/03/18 11:37:58;;;;;;;2.58;1.60;;;;;;;;;;5154889;27;20179;-75
2021/03/18 11:40:25;;;;;;;6.82;3.22;;;;;;;;;;5154988;27;20202;-75
2021/03/18 11:42:51;;;;;;;3.60;2.40;;;;;;;;;;5155174;27;20232;-75
2021/03/18 11:45:17;;;;;;;3.90;2.63;;;;;;;;;;5154998;27;20206;-76
2021/03/18 11:47:44;;;;;;;5.05;2.42;;;;;;;;;;5154910;27;20254;-75
2021/03/18 11:50:10;;;;;;;4.40;2.88;;;;;;;;;;5154601;27;20281;-74
2021/03/18 11:52:36;;;;;;;5.05;2.63;;;;;;;;;;5154859;27;20623;-75
2021/03/18 11:55:02;;;;;;;4.57;2.45;;;;;;;;;;5154593;27;20255;-74
2021/03/18 11:57:29;;;;;;;6.82;3.15;;;;;;;;;;5154672;27;20241;-74
2021/03/18 11:59:56;;;;;;;3.45;2.25;;;;;;;;;;5154568;27;20197;-74
2021/03/18 12:02:22;;;;;;;2.53;2.08;;;;;;;;;;5154124;27;20237;-74
2021/03/18 12:04:48;;;;;;;4.43;3.13;;;;;;;;;;5154623;27;20627;-75
2021/03/18 12:07:14;;;;;;;3.38;2.60;;;;;;;;;;5154531;27;20219;-75
2021/03/18 12:09:40;;;;;;;4.30;1.95;;;;;;;;;;5154784;27;20963;-75
2021/03/18 12:12:07;;;;;;;7.93;3.20;;;;;;;;;;5154266;27;20194;-75
2021/03/18 12:14:34;;;;;;;4.13;2.35;;;;;;;;;;5154731;27;20204;-74
2021/03/18 12:17:00;;;;;;;5.80;2.35;;;;;;;;;;5154420;27;20269;-75
2021/03/18 12:19:26;;;;;;;3.90;2.33;;;;;;;;;;5154279;27;20254;-74
2021/03/18 12:21:52;;;;;;;3.60;2.55;;;;;;;;;;5154552;27;20179;-74
2021/03/18 12:24:18;;;;;;;3.15;2.85;;;;;;;;;;5153849;27;20249;-76
2021/03/18 12:26:44;;;;;;;4.93;2.65;;;;;;;;;;5154304;27;20218;-77
2021/03/18 12:29:10;;;;;;;3.40;2.03;;;;;;;;;;5154321;27;20621;-76
2021/03/18 12:31:37;;;;;;;2.97;2.17;;;;;;;;;;5157480;27;20205;-75
2021/03/18 12:34:04;;;;;;;2.55;2.08;;;;;;;;;;5158593;27;20208;-78
2021/03/18 12:36:30;;;;;;;2.65;2.33;;;;;;;;;;5158205;27;20223;-76
2021/03/18 12:38:56;;;;;;;2.75;2.45;;;;;;;;;;5157861;27;20208;-75
2021/03/18 12:41:22;;;;;;;3.40;2.45;;;;;;;;;;5157912;27;20238;-76
2021/03/18 12:43:48;;;;;;;2.60;2.20;;;;;;;;;;5157984;27;20192;-75
2021/03/18 12:46:14;;;;;;;6.20;2.55;;;;;;;;;;5156789;27;20326;-75
2021/03/18 12:48:41;;;;;;;3.75;2.85;;;;;;;;;;5157904;27;20565;-75
2021/03/18 12:51:07;;;;;;;3.40;2.38;;;;;;;;;;5158029;27;20558;-75
2021/03/18 12:53:33;;;;;;;3.47;2.30;;;;;;;;;;5157944;27;20243;-76
2021/03/18 12:56:00;;;;;;;5.40;2.85;;;;;;;;;;5157350;27;20200;-75
2021/03/18 12:58:26;;;;;;;2.45;2.25;;;;;;;;;;5157531;27;20253;-76
2021/03/18 13:00:53;;;;;;;5.03;3.00;;;;;;;;;;5157484;27;20206;-76
2021/03/18 13:03:19;;;;;;;3.95;2.45;;;;;;;;;;5157762;27;20309;-75
2021/03/18 13:05:46;;;;;;;2.90;2.00;;;;;;;;;;5157362;27;20208;-76
2021/03/18 13:08:12;;;;;;;2.20;2.10;;;;;;;;;;5157308;27;20230;-75
2021/03/18 13:10:38;;;;;;;3.90;2.75;;;;;;;;;;5157103;27;20213;-74
2021/03/18 13:13:05;;;;;;;3.58;1.70;;;;;;;;;;5157547;27;20214;-75
2021/03/18 13:15:31;;;;;;;3.83;2.17;;;;;;;;;;5157700;27;20676;-76
2021/03/18 13:17:57;;;;;;;3.13;2.10;;;;;;;;;;5157757;27;20212;-76
2021/03/18 13:20:24;;;;;;;8.13;1.70;;;;;;;;;;5157708;27;20362;-75
2021/03/18 13:22:51;;;;;;;3.05;2.08;;;;;;;;;;5158228;27;20448;-76
2021/03/18 13:25:17;;;;;;;1.55;1.30;;;;;;;;;;5157528;27;20207;-77
2021/03/18 13:27:44;;;;;;;2.75;1.90;;;;;;;;;;5157639;27;20698;-76
2021/03/18 13:30:11;;;;;;;2.53;2.33;;;;;;;;;;5157877;27;20315;-77
2021/03/18 13:32:38;;;;;;;3.55;2.35;;;;;;;;;;5157252;27;20262;-76
2021/03/18 13:35:04;;;;;;;2.75;1.63;;;;;;;;;;5157320;27;20358;-76
2021/03/18 13:37:30;;;;;;;3.45;2.22;;;;;;;;;;5157806;27;20201;-76
2021/03/18 13:39:59;;;;;;;7.85;3.03;;;;;;;;;;5157140;27;20200;-75
2021/03/18 13:42:25;;;;;;;2.97;1.85;;;;;;;;;;5156543;27;20358;-77
2021/03/18 13:44:51;;;;;;;3.67;2.38;;;;;;;;;;5157795;27;20291;-76
2021/03/18 13:47:17;;;;;;;4.47;2.03;;;;;;;;;;5156911;27;20217;-76
2021/03/18 13:49:43;;;;;;;4.55;2.17;;;;;;;;;;5157075;27;20202;-76
2021/03/18 13:52:09;;;;;;;3.78;2.30;;;;;;;;;;5157563;27;20635;-76
2021/03/18 13:54:35;;;;;;;3.28;1.80;;;;;;;;;;5157363;27;20186;-74
2021/03/18 13:57:02;;;;;;;2.55;2.10;;;;;;;;;;5156658;27;20225;-74
2021/03/18 13:59:28;;;;;;;2.55;1.77;;;;;;;;;;5157167;27;20632;-75
2021/03/18 14:01:54;;;;;;;3.65;1.88;;;;;;;;;;5157402;27;20196;-76
2021/03/18 14:04:21;;;;;;;2.47;1.80;;;;;;;;;;5156574;27;20203;-76
2021/03/18 14:06:47;;;;;;;2.65;2.00;;;;;;;;;;5156554;27;20646;-75
2021/03/18 14:09:13;;;;;;;2.20;1.73;;;;;;;;;;5155989;27;20185;-76
2021/03/18 14:11:39;;;;;;;2.70;1.63;;;;;;;;;;5156502;27;20198;-74
2021/03/18 14:14:07;;;;;;;2.13;1.80;;;;;;;;;;5157445;27;20301;-76
2021/03/18 14:16:33;;;;;;;2.83;1.90;;;;;;;;;;5156366;27;20248;-76
2021/03/18 14:18:59;;;;;;;4.43;2.60;;;;;;;;;;5156690;27;20199;-75
2021/03/18 14:21:26;;;;;;;2.28;1.75;;;;;;;;;;5156720;27;20203;-75
2021/03/18 14:23:52;;;;;;;2.38;1.50;;;;;;;;;;5156549;27;20707;-73
2021/03/18 14:26:18;;;;;;;2.03;1.83;;;;;;;;;;5156243;27;20248;-76
2021/03/18 14:28:44;;;;;;;2.65;1.98;;;;;;;;;;5156464;27;20298;-77
2021/03/18 14:31:12;;;;;;;3.83;1.98;;;;;;;;;;5156447;27;20212;-76
2021/03/18 14:33:38;;;;;;;2.47;1.83;;;;;;;;;;5155740;27;20186;-75
2021/03/18 14:36:04;;;;;;;9.40;2.35;;;;;;;;;;5155542;27;20512;-79
2021/03/18 14:38:30;;;;;;;3.97;2.20;;;;;;;;;;5155567;27;20636;-76
2021/03/18 14:40:57;;;;;;;4.05;1.95;;;;;;;;;;5154890;27;20373;-76
2021/03/18 14:43:23;;;;;;;2.42;1.95;;;;;;;;;;5155661;27;20198;-75
2021/03/18 14:45:49;;;;;;;5.22;1.90;;;;;;;;;;5155401;27;20577;-76
2021/03/18 14:48:17;;;;;;;2.47;2.25;;;;;;;;;;5155086;27;20513;-76